createdAt,value
2022-12-08T00:01:32.899Z,11.85
2022-12-08T00:04:01.311Z,13.38
2022-12-08T00:07:01.636Z,14.38
2022-12-08T00:09:39.433Z,12.48
2022-12-08T00:12:16.721Z,13.18
2022-12-08T00:14:46.587Z,14.90
2022-12-08T00:17:15.970Z,11.23
2022-12-08T00:19:43.998Z,16.80
2022-12-08T00:22:12.910Z,12.43
2022-12-08T00:24:41.415Z,14.00
2022-12-08T00:27:10.737Z,14.68
2022-12-08T00:29:38.232Z,13.43
2022-12-08T00:32:06.503Z,17.65
2022-12-08T00:34:34.055Z,15.10
2022-12-08T00:37:01.467Z,11.73
2022-12-08T00:39:28.795Z,12.95
2022-12-08T00:42:14.669Z,14.18
2022-12-08T00:44:44.427Z,11.98
2022-12-08T00:47:13.008Z,13.95
2022-12-08T00:49:40.061Z,13.40
2022-12-08T00:52:07.632Z,12.85
2022-12-08T00:54:35.111Z,14.65
2022-12-08T00:57:02.797Z,12.55
2022-12-08T00:59:29.878Z,12.55
2022-12-08T01:01:57.294Z,11.98
2022-12-08T01:04:26.057Z,11.82
2022-12-08T01:06:53.491Z,13.57
2022-12-08T01:09:20.680Z,13.02
2022-12-08T01:11:49.532Z,12.05
2022-12-08T01:14:16.780Z,13.88
2022-12-08T01:16:44.427Z,12.40
2022-12-08T01:19:14.455Z,14.02
2022-12-08T01:21:41.977Z,11.70
2022-12-08T01:24:14.356Z,13.30
2022-12-08T01:26:41.903Z,16.88
2022-12-08T01:29:09.850Z,11.32
2022-12-08T01:31:37.950Z,12.07
2022-12-08T01:34:05.330Z,13.88
2022-12-08T01:36:37.062Z,12.95
2022-12-08T01:39:07.571Z,12.55
2022-12-08T01:41:38.052Z,13.70
2022-12-08T01:44:08.400Z,13.57
2022-12-08T01:46:38.663Z,12.75
2022-12-08T01:49:10.729Z,12.07
2022-12-08T01:51:49.360Z,12.48
2022-12-08T01:54:17.159Z,14.38
2022-12-08T01:56:52.476Z,11.38
2022-12-08T01:59:20.338Z,10.30
2022-12-08T02:01:52.143Z,11.80
2022-12-08T02:04:19.314Z,11.48
2022-12-08T02:06:49.123Z,11.23
2022-12-08T02:09:16.573Z,14.88
2022-12-08T02:11:44.101Z,14.70
2022-12-08T02:14:14.655Z,13.05
2022-12-08T02:17:19.479Z,13.93
2022-12-08T02:20:07.951Z,17.25
2022-12-08T02:22:53.918Z,13.57
2022-12-08T02:25:28.098Z,12.68
2022-12-08T02:28:07.797Z,14.23
2022-12-08T02:31:03.493Z,15.40
2022-12-08T02:33:55.525Z,13.68
2022-12-08T02:36:42.187Z,12.35
2022-12-08T02:39:15.671Z,14.82
2022-12-08T02:41:57.082Z,13.02
2022-12-08T02:44:33.259Z,14.48
2022-12-08T02:47:24.565Z,13.63
2022-12-08T02:49:51.986Z,11.82
2022-12-08T02:52:18.986Z,12.35
2022-12-08T02:54:57.404Z,11.65
2022-12-08T02:57:48.802Z,13.40
2022-12-08T03:00:19.056Z,11.70
2022-12-08T03:03:01.434Z,14.85
2022-12-08T03:05:53.500Z,11.70
2022-12-08T03:08:33.086Z,17.92
2022-12-08T03:11:11.741Z,13.38
2022-12-08T03:13:46.438Z,11.15
2022-12-08T03:16:17.629Z,12.80
2022-12-08T03:18:50.843Z,12.73
2022-12-08T03:21:21.067Z,10.13
2022-12-08T03:23:52.411Z,14.30
2022-12-08T03:26:50.323Z,12.45
2022-12-08T03:29:17.798Z,14.82
2022-12-08T03:31:52.189Z,12.52
2022-12-08T03:34:19.995Z,12.60
2022-12-08T03:36:47.447Z,13.63
2022-12-08T03:39:14.851Z,11.63
2022-12-08T03:41:42.539Z,11.25
2022-12-08T03:44:09.620Z,13.95
2022-12-08T03:46:36.959Z,15.25
2022-12-08T03:49:04.348Z,17.30
2022-12-08T03:51:33.904Z,14.25
2022-12-08T03:54:01.013Z,15.85
2022-12-08T03:56:30.700Z,13.88
2022-12-08T03:58:58.587Z,16.42
2022-12-08T04:01:27.521Z,19.63
2022-12-08T04:03:55.000Z,16.85
2022-12-08T04:06:22.596Z,14.70
2022-12-08T04:08:51.241Z,13.85
2022-12-08T04:11:19.244Z,15.70
2022-12-08T04:13:46.585Z,15.15
2022-12-08T04:16:21.285Z,17.52
2022-12-08T04:18:49.004Z,14.00
2022-12-08T04:21:18.213Z,19.30
2022-12-08T04:23:46.278Z,13.98
2022-12-08T04:26:14.208Z,13.80
2022-12-08T04:28:41.539Z,19.08
2022-12-08T04:31:09.021Z,11.00
2022-12-08T04:33:36.438Z,15.57
2022-12-08T04:36:05.705Z,15.65
2022-12-08T04:38:33.588Z,15.27
2022-12-08T04:41:01.332Z,14.00
2022-12-08T04:43:28.570Z,14.48
2022-12-08T04:45:55.997Z,12.95
2022-12-08T04:48:23.514Z,13.35
2022-12-08T04:50:51.592Z,11.80
2022-12-08T04:53:19.790Z,14.20
2022-12-08T04:55:49.567Z,14.82
2022-12-08T04:58:19.087Z,14.00
2022-12-08T05:00:47.392Z,13.68
2022-12-08T05:03:14.820Z,14.30
2022-12-08T05:05:43.543Z,14.63
2022-12-08T05:08:11.153Z,11.00
2022-12-08T05:10:38.827Z,11.73
2022-12-08T05:13:06.108Z,12.75
2022-12-08T05:15:36.278Z,11.82
2022-12-08T05:18:06.094Z,13.05
2022-12-08T05:20:34.340Z,13.55
2022-12-08T05:23:01.754Z,15.43
2022-12-08T05:25:29.233Z,12.48
2022-12-08T05:28:17.486Z,12.02
2022-12-08T05:33:10.784Z,12.52
2022-12-08T05:35:38.238Z,13.88
2022-12-08T05:38:06.053Z,16.30
2022-12-08T05:40:33.452Z,12.93
2022-12-08T05:43:00.491Z,15.05
2022-12-08T05:45:28.143Z,11.45
2022-12-08T05:47:55.305Z,9.98
2022-12-08T05:50:22.651Z,11.95
2022-12-08T05:52:49.767Z,9.73
2022-12-08T05:55:17.239Z,12.30
2022-12-08T05:57:44.509Z,12.32
2022-12-08T06:00:12.639Z,12.35
2022-12-08T06:02:39.773Z,17.60
2022-12-08T06:05:07.747Z,18.90
2022-12-08T06:07:34.871Z,15.52
2022-12-08T06:10:02.874Z,14.25
2022-12-08T06:12:30.251Z,13.25
2022-12-08T06:14:57.629Z,10.63
2022-12-08T06:17:24.664Z,12.48
2022-12-08T06:19:51.995Z,10.20
2022-12-08T06:22:19.058Z,15.15
2022-12-08T06:24:46.751Z,12.05
2022-12-08T06:27:13.808Z,14.90
2022-12-08T06:29:41.235Z,11.73
2022-12-08T06:32:08.380Z,16.35
2022-12-08T06:34:35.755Z,12.65
2022-12-08T06:37:02.904Z,14.82
2022-12-08T06:39:30.386Z,13.10
2022-12-08T06:42:15.969Z,12.15
2022-12-08T06:44:43.421Z,14.15
2022-12-08T06:47:10.487Z,14.88
2022-12-08T06:49:37.839Z,15.27
2022-12-08T06:52:05.318Z,13.70
2022-12-08T06:54:32.742Z,15.73
2022-12-08T06:56:59.881Z,11.80
2022-12-08T06:59:27.375Z,24.10
2022-12-08T07:01:54.409Z,12.43
2022-12-08T07:04:21.749Z,13.68
2022-12-08T07:06:48.871Z,17.83
2022-12-08T07:09:16.556Z,14.88
2022-12-08T07:11:43.779Z,12.40
2022-12-08T07:14:11.186Z,14.40
2022-12-08T07:16:39.431Z,14.43
2022-12-08T07:19:07.114Z,12.82
2022-12-08T07:21:34.223Z,15.38
2022-12-08T07:24:02.632Z,12.40
2022-12-08T07:26:29.683Z,15.10
2022-12-08T07:28:57.034Z,14.52
2022-12-08T07:31:25.688Z,12.15
2022-12-08T07:33:53.206Z,15.40
2022-12-08T07:36:20.309Z,13.10
2022-12-08T07:38:48.232Z,11.35
2022-12-08T07:41:23.217Z,14.15
2022-12-08T07:43:52.164Z,13.02
2022-12-08T07:46:22.145Z,15.30
2022-12-08T07:48:50.116Z,15.90
2022-12-08T07:51:17.357Z,11.48
2022-12-08T07:53:53.190Z,11.45
2022-12-08T07:56:21.672Z,8.93
2022-12-08T07:58:49.069Z,12.60
2022-12-08T08:01:25.656Z,15.20
2022-12-08T08:03:54.685Z,41.70
2022-12-08T08:06:21.800Z,25.88
2022-12-08T08:08:49.417Z,19.77
2022-12-08T08:11:21.365Z,29.67
2022-12-08T08:13:51.098Z,15.73
2022-12-08T08:16:19.076Z,19.20
2022-12-08T08:18:51.050Z,16.02
2022-12-08T08:21:44.489Z,22.58
2022-12-08T08:24:07.311Z,23.45
2022-12-08T08:26:34.589Z,13.60
2022-12-08T08:29:01.987Z,22.73
2022-12-08T08:31:29.107Z,13.90
2022-12-08T08:33:57.374Z,16.60
2022-12-08T08:36:24.525Z,15.63
2022-12-08T08:38:53.014Z,16.88
2022-12-08T08:41:20.084Z,14.13
2022-12-08T08:43:47.524Z,38.83
2022-12-08T08:46:14.659Z,14.02
2022-12-08T08:48:42.350Z,17.00
2022-12-08T08:51:11.565Z,14.43
2022-12-08T08:53:40.572Z,20.52
2022-12-08T08:56:13.114Z,42.25
2022-12-08T08:58:40.975Z,57.78
2022-12-08T09:01:08.147Z,19.10
2022-12-08T09:03:35.686Z,65.43
2022-12-08T09:06:02.909Z,36.40
2022-12-08T09:08:30.544Z,37.83
2022-12-08T09:10:57.841Z,14.55
2022-12-08T09:13:25.351Z,17.70
2022-12-08T09:15:52.643Z,12.50
2022-12-08T09:18:21.408Z,29.77
2022-12-08T09:20:48.507Z,15.50
2022-12-08T09:23:17.178Z,19.33
2022-12-08T09:25:45.646Z,15.45
2022-12-08T09:28:14.616Z,22.27
2022-12-08T09:30:42.922Z,37.03
2022-12-08T09:33:10.534Z,15.27
2022-12-08T09:35:37.629Z,31.33
2022-12-08T09:38:05.224Z,50.40
2022-12-08T09:40:42.145Z,45.90
2022-12-08T09:43:32.722Z,16.60
2022-12-08T09:46:00.904Z,21.48
2022-12-08T09:48:34.258Z,12.63
2022-12-08T09:51:03.905Z,15.10
2022-12-08T09:53:37.320Z,12.52
2022-12-08T09:56:11.602Z,12.98
2022-12-08T09:59:02.419Z,14.40
2022-12-08T10:01:33.168Z,11.60
2022-12-08T10:04:01.283Z,16.00
2022-12-08T10:06:41.455Z,17.02
2022-12-08T10:09:31.998Z,15.43
2022-12-08T10:12:11.183Z,11.38
2022-12-08T10:14:53.868Z,10.30
2022-12-08T10:17:26.045Z,16.52
2022-12-08T10:19:59.905Z,10.60
2022-12-08T10:22:32.674Z,16.98
2022-12-08T10:25:15.745Z,12.88
2022-12-08T10:27:47.000Z,15.05
2022-12-08T10:30:17.015Z,13.40
2022-12-08T10:32:50.485Z,18.33
2022-12-08T10:35:20.751Z,15.52
2022-12-08T10:38:02.566Z,15.73
2022-12-08T10:40:42.328Z,17.00
2022-12-08T10:43:25.179Z,20.33
2022-12-08T10:46:10.288Z,14.55
2022-12-08T10:48:37.503Z,9.43
2022-12-08T10:51:05.745Z,12.02
2022-12-08T10:53:34.226Z,11.15
2022-12-08T10:56:01.768Z,11.05
2022-12-08T10:58:42.541Z,13.55
2022-12-08T11:01:14.686Z,12.23
2022-12-08T11:04:02.618Z,10.82
2022-12-08T11:06:55.786Z,13.20
2022-12-08T11:09:33.830Z,13.75
2022-12-08T11:12:16.708Z,18.20
2022-12-08T11:14:44.130Z,13.60
2022-12-08T11:17:24.778Z,13.32
2022-12-08T11:20:18.857Z,16.58
2022-12-08T11:22:54.405Z,15.30
2022-12-08T11:25:28.543Z,14.25
2022-12-08T11:28:00.277Z,18.73
2022-12-08T11:30:36.226Z,14.35
2022-12-08T11:33:25.497Z,18.85
2022-12-08T11:36:12.694Z,14.18
2022-12-08T11:38:47.525Z,9.55
2022-12-08T11:41:36.095Z,15.30
2022-12-08T11:44:30.231Z,12.68
2022-12-08T11:47:16.857Z,13.80
2022-12-08T11:52:14.760Z,12.98
2022-12-08T11:54:48.077Z,10.48
2022-12-08T11:57:20.918Z,10.23
2022-12-08T11:59:53.584Z,12.57
2022-12-08T12:02:24.448Z,10.45
2022-12-08T12:06:03.379Z,12.70
2022-12-08T12:08:55.691Z,12.05
2022-12-08T12:12:13.222Z,12.75
2022-12-08T12:15:36.774Z,11.73
2022-12-08T12:18:31.439Z,15.55
2022-12-08T12:21:09.970Z,11.20
2022-12-08T12:23:40.687Z,12.23
2022-12-08T12:26:16.823Z,10.95
2022-12-08T12:28:55.475Z,13.85
2022-12-08T12:31:50.322Z,11.70
2022-12-08T12:34:24.269Z,11.80
2022-12-08T12:37:14.806Z,10.98
2022-12-08T12:39:54.118Z,11.70
2022-12-08T12:42:44.357Z,8.50
2022-12-08T12:45:21.987Z,10.63
2022-12-08T12:47:56.864Z,15.05
2022-12-08T12:50:33.951Z,12.65
2022-12-08T12:53:05.104Z,13.20
2022-12-08T12:55:46.532Z,9.43
2022-12-08T12:58:22.410Z,10.30
2022-12-08T13:00:49.928Z,12.32
2022-12-08T13:03:18.382Z,10.05
2022-12-08T13:05:52.445Z,10.05
2022-12-08T13:08:26.297Z,12.98
2022-12-08T13:11:07.136Z,11.82
2022-12-08T13:13:35.451Z,15.50
2022-12-08T13:16:19.566Z,14.20
2022-12-08T13:18:50.291Z,13.50
2022-12-08T13:21:21.628Z,16.58
2022-12-08T13:24:09.599Z,17.98
2022-12-08T13:27:09.195Z,13.60
2022-12-08T13:29:38.529Z,14.05
2022-12-08T13:32:28.710Z,16.33
2022-12-08T13:35:00.331Z,16.15
2022-12-08T13:37:54.528Z,18.08
2022-12-08T13:40:30.376Z,16.40
2022-12-08T13:43:10.192Z,18.95
2022-12-08T13:46:41.888Z,16.92
2022-12-08T13:49:52.738Z,19.45
2022-12-08T13:57:34.425Z,16.95
2022-12-08T14:00:08.384Z,19.50
2022-12-08T14:02:48.778Z,21.63
2022-12-08T14:05:35.221Z,22.00
2022-12-08T14:08:50.366Z,19.15
2022-12-08T14:11:10.750Z,21.05
2022-12-08T14:13:38.343Z,23.55
2022-12-08T14:16:06.023Z,25.38
2022-12-08T14:18:33.533Z,25.40
2022-12-08T14:23:51.157Z,24.95
2022-12-08T14:26:18.634Z,24.05
2022-12-08T14:28:46.245Z,28.95
2022-12-08T14:31:14.864Z,22.92
2022-12-08T14:33:43.120Z,25.17
2022-12-08T14:36:12.673Z,28.83
2022-12-08T14:38:40.485Z,23.55
2022-12-08T14:41:10.887Z,23.30
2022-12-08T14:43:41.090Z,24.38
2022-12-08T14:46:28.739Z,25.23
2022-12-08T14:48:58.087Z,24.90
2022-12-08T14:51:33.500Z,23.63
2022-12-08T14:54:18.824Z,25.85
2022-12-08T14:56:53.435Z,26.38
2022-12-08T14:59:33.041Z,27.08
2022-12-08T15:02:19.613Z,28.55
2022-12-08T15:04:49.648Z,26.25
2022-12-08T15:07:38.970Z,33.20
2022-12-08T15:10:10.262Z,21.10
2022-12-08T15:12:37.590Z,27.02
2022-12-08T15:15:08.443Z,25.13
2022-12-08T15:17:40.949Z,26.38
2022-12-08T15:20:39.076Z,24.95
2022-12-08T15:23:13.682Z,27.38
2022-12-08T15:25:41.205Z,25.00
2022-12-08T15:28:12.324Z,27.83
2022-12-08T15:30:39.999Z,29.85
2022-12-08T15:33:07.363Z,27.20
2022-12-08T15:35:40.578Z,28.58
2022-12-08T15:38:18.942Z,28.60
2022-12-08T15:40:47.065Z,31.65
2022-12-08T15:43:14.634Z,29.80
2022-12-08T15:45:53.399Z,27.23
2022-12-08T15:48:29.738Z,31.48
2022-12-08T15:50:58.021Z,29.60
2022-12-08T15:53:25.478Z,32.55
2022-12-08T15:58:57.299Z,31.45
2022-12-08T16:01:26.154Z,33.78
2022-12-08T16:04:37.238Z,32.03
2022-12-08T16:07:19.684Z,34.63
2022-12-08T16:09:38.786Z,29.30
2022-12-08T16:12:48.349Z,35.88
2022-12-08T16:18:07.026Z,32.78
2022-12-08T16:23:41.825Z,34.20
2022-12-08T16:26:28.423Z,40.03
2022-12-08T16:29:00.983Z,31.65
2022-12-08T16:31:29.794Z,34.20
2022-12-08T16:33:57.435Z,39.22
2022-12-08T16:36:24.654Z,36.78
2022-12-08T16:38:52.171Z,34.67
2022-12-08T16:41:37.934Z,37.03
2022-12-08T16:44:06.248Z,39.58
2022-12-08T16:46:33.845Z,37.47
2022-12-08T16:49:01.522Z,39.47
2022-12-08T16:51:28.818Z,44.05
2022-12-08T16:53:57.160Z,41.35
2022-12-08T16:56:30.617Z,46.90
2022-12-08T16:59:01.177Z,43.95
2022-12-08T17:01:28.532Z,37.13
2022-12-08T17:04:29.223Z,49.03
2022-12-08T17:06:43.343Z,35.67
2022-12-08T17:09:11.158Z,40.53
2022-12-08T17:11:43.008Z,37.13
2022-12-08T17:14:13.112Z,36.95
2022-12-08T17:16:40.962Z,33.17
2022-12-08T17:19:08.561Z,40.25
2022-12-08T17:21:35.986Z,39.72
2022-12-08T17:24:03.924Z,39.03
2022-12-08T17:26:31.294Z,39.47
2022-12-08T17:29:00.847Z,42.13
2022-12-08T17:31:30.248Z,40.25
2022-12-08T17:34:03.028Z,40.63
2022-12-08T17:36:30.532Z,41.67
2022-12-08T17:39:00.534Z,46.08
2022-12-08T17:41:28.793Z,40.38
2022-12-08T17:43:56.847Z,44.60
2022-12-08T17:46:24.522Z,45.63
2022-12-08T17:48:52.551Z,36.17
2022-12-08T17:51:20.174Z,46.97
2022-12-08T17:53:47.613Z,42.33
2022-12-08T17:56:20.459Z,39.17
2022-12-08T17:58:53.961Z,40.17
2022-12-08T18:01:23.245Z,40.85
2022-12-08T18:03:51.377Z,46.05
2022-12-08T18:06:18.682Z,39.38
2022-12-08T18:08:46.339Z,56.63
2022-12-08T18:11:17.794Z,63.55
2022-12-08T18:13:46.749Z,46.95
2022-12-08T18:16:14.931Z,42.45
2022-12-08T18:18:42.458Z,47.85
2022-12-08T18:21:10.354Z,43.88
2022-12-08T18:23:39.216Z,45.05
2022-12-08T18:26:07.401Z,48.55
2022-12-08T18:28:35.096Z,43.08
2022-12-08T18:31:02.504Z,43.88
2022-12-08T18:33:30.033Z,45.00
2022-12-08T18:35:57.248Z,40.58
2022-12-08T18:38:24.926Z,40.85
2022-12-08T18:40:52.198Z,44.10
2022-12-08T18:43:19.850Z,36.10
2022-12-08T18:45:47.017Z,42.65
2022-12-08T18:48:14.571Z,42.45
2022-12-08T18:50:44.767Z,40.40
2022-12-08T18:53:12.521Z,40.33
2022-12-08T18:55:39.681Z,46.55
2022-12-08T18:58:07.269Z,44.65
2022-12-08T19:00:34.579Z,44.28
2022-12-08T19:03:02.344Z,37.58
2022-12-08T19:05:29.559Z,38.75
2022-12-08T19:07:59.203Z,48.42
2022-12-08T19:10:27.354Z,52.83
2022-12-08T19:12:54.848Z,47.08
2022-12-08T19:15:22.250Z,43.78
2022-12-08T19:17:49.886Z,51.97
2022-12-08T19:20:17.113Z,49.63
2022-12-08T19:22:44.684Z,55.63
2022-12-08T19:25:12.344Z,48.85
2022-12-08T19:27:39.810Z,114.35
2022-12-08T19:30:08.011Z,50.80
2022-12-08T19:32:37.938Z,53.88
2022-12-08T19:35:07.654Z,41.58
2022-12-08T19:37:35.802Z,46.80
2022-12-08T19:40:25.725Z,39.20
2022-12-08T19:43:12.266Z,46.55
2022-12-08T19:45:39.985Z,38.55
2022-12-08T19:48:08.792Z,43.80
2022-12-08T19:50:36.201Z,38.55
2022-12-08T19:53:15.510Z,38.45
2022-12-08T19:55:44.338Z,41.25
2022-12-08T19:58:15.028Z,38.17
2022-12-08T20:00:44.983Z,40.53
2022-12-08T20:03:18.775Z,43.05
2022-12-08T20:05:50.399Z,43.92
2022-12-08T20:08:18.014Z,38.78
2022-12-08T20:10:46.379Z,45.80
2022-12-08T20:13:32.420Z,45.63
2022-12-08T20:16:00.409Z,38.90
2022-12-08T20:18:28.801Z,46.67
2022-12-08T20:20:57.078Z,81.93
2022-12-08T20:23:24.744Z,58.50
2022-12-08T20:25:52.031Z,40.85
2022-12-08T20:28:19.859Z,38.55
2022-12-08T20:30:49.077Z,40.13
2022-12-08T20:33:18.117Z,38.55
2022-12-08T20:35:46.605Z,40.67
2022-12-08T20:38:14.402Z,35.25
2022-12-08T20:40:46.482Z,36.15
2022-12-08T20:43:14.015Z,46.05
2022-12-08T20:45:41.298Z,43.03
2022-12-08T20:48:08.815Z,36.20
2022-12-08T20:50:36.177Z,39.90
2022-12-08T20:53:04.994Z,42.10
2022-12-08T20:55:32.372Z,41.67
2022-12-08T20:57:59.962Z,41.97
2022-12-08T21:00:28.222Z,37.90
2022-12-08T21:02:56.956Z,44.22
2022-12-08T21:05:24.822Z,45.88
2022-12-08T21:07:52.653Z,41.72
2022-12-08T21:10:20.393Z,40.67
2022-12-08T21:12:48.212Z,41.60
2022-12-08T21:15:15.543Z,40.78
2022-12-08T21:17:43.139Z,44.00
2022-12-08T21:20:11.772Z,43.38
2022-12-08T21:22:40.308Z,43.42
2022-12-08T21:25:08.911Z,41.80
2022-12-08T21:27:38.688Z,42.20
2022-12-08T21:30:09.056Z,37.47
2022-12-08T21:32:39.096Z,38.70
2022-12-08T21:35:07.360Z,42.22
2022-12-08T21:37:35.833Z,40.58
2022-12-08T21:40:03.220Z,34.92
2022-12-08T21:42:46.371Z,37.13
2022-12-08T21:45:19.412Z,38.05
2022-12-08T21:47:48.402Z,37.20
2022-12-08T21:50:17.238Z,42.58
2022-12-08T21:52:47.926Z,42.63
2022-12-08T21:55:16.961Z,40.55
2022-12-08T21:57:44.521Z,39.17
2022-12-08T22:00:15.028Z,43.05
2022-12-08T22:02:43.314Z,43.05
2022-12-08T22:05:11.893Z,39.70
2022-12-08T22:07:40.562Z,42.15
2022-12-08T22:10:10.821Z,44.17
2022-12-08T22:12:39.559Z,38.70
2022-12-08T22:15:08.731Z,40.15
2022-12-08T22:17:38.873Z,44.58
2022-12-08T22:20:08.441Z,41.90
2022-12-08T22:22:36.244Z,41.25
2022-12-08T22:25:05.270Z,39.30
2022-12-08T22:27:36.325Z,38.08
2022-12-08T22:30:04.667Z,40.17
2022-12-08T22:32:32.760Z,40.78
2022-12-08T22:35:00.188Z,40.75
2022-12-08T22:37:28.621Z,39.33
2022-12-08T22:39:55.967Z,36.67
2022-12-08T22:42:23.514Z,39.28
2022-12-08T22:44:50.966Z,37.67
2022-12-08T22:47:18.596Z,40.10
2022-12-08T22:49:45.848Z,36.35
2022-12-08T22:52:13.332Z,37.33
2022-12-08T22:54:40.638Z,41.03
2022-12-08T22:57:08.133Z,39.67
2022-12-08T22:59:35.415Z,38.65
2022-12-08T23:02:03.145Z,38.25
2022-12-08T23:04:30.557Z,36.90
2022-12-08T23:06:58.153Z,39.55
2022-12-08T23:09:25.305Z,34.15
2022-12-08T23:11:53.580Z,32.55
2022-12-08T23:14:20.822Z,37.63
2022-12-08T23:16:48.801Z,37.92
2022-12-08T23:19:16.144Z,38.13
2022-12-08T23:21:43.741Z,37.40
2022-12-08T23:24:10.891Z,33.60
2022-12-08T23:26:38.658Z,35.78
2022-12-08T23:31:50.659Z,35.47
2022-12-08T23:34:17.968Z,35.28
2022-12-08T23:36:45.474Z,32.10
2022-12-08T23:39:13.204Z,33.38
2022-12-08T23:41:40.938Z,35.13
2022-12-08T23:44:09.287Z,37.45
2022-12-08T23:46:37.113Z,34.85
2022-12-08T23:49:04.404Z,37.55
2022-12-08T23:51:32.405Z,35.72
2022-12-08T23:53:59.840Z,36.75
2022-12-08T23:56:30.436Z,34.50
2022-12-08T23:58:58.145Z,36.40
